createdAt,value
2024-02-13T00:00:13.019Z,6.20
2024-02-13T00:03:01.617Z,4.70
2024-02-13T00:05:30.759Z,5.30
2024-02-13T00:08:01.420Z,6.60
2024-02-13T00:10:30.558Z,8.00
2024-02-13T00:12:59.632Z,7.30
2024-02-13T00:15:28.394Z,5.30
2024-02-13T00:17:57.090Z,7.00
2024-02-13T00:20:25.774Z,4.30
2024-02-13T00:22:54.208Z,6.10
2024-02-13T00:25:22.825Z,3.40
2024-02-13T00:27:51.986Z,3.00
2024-02-13T00:30:20.567Z,3.60
2024-02-13T00:32:49.232Z,3.50
2024-02-13T00:35:18.418Z,3.10
2024-02-13T00:37:47.169Z,3.40
2024-02-13T00:40:15.793Z,2.00
2024-02-13T00:42:44.342Z,4.70
2024-02-13T00:45:13.329Z,3.00
2024-02-13T00:47:42.449Z,3.80
2024-02-13T00:50:11.607Z,3.30
2024-02-13T00:52:42.811Z,4.40
2024-02-13T00:55:12.003Z,1.80
2024-02-13T00:57:40.440Z,3.60
2024-02-13T01:00:13.261Z,3.40
2024-02-13T01:02:41.951Z,2.80
2024-02-13T01:05:10.936Z,4.00
2024-02-13T01:07:39.562Z,2.50
2024-02-13T01:10:09.876Z,3.40
2024-02-13T01:12:40.198Z,2.80
2024-02-13T01:15:10.661Z,4.00
2024-02-13T01:17:39.286Z,5.10
2024-02-13T01:20:12.074Z,5.00
2024-02-13T01:22:42.835Z,2.90
2024-02-13T01:25:14.555Z,4.90
2024-02-13T01:27:42.944Z,4.40
2024-02-13T01:30:14.585Z,4.60
2024-02-13T01:32:43.411Z,3.20
2024-02-13T01:35:14.028Z,5.40
2024-02-13T01:37:42.534Z,4.70
2024-02-13T01:40:13.162Z,3.30
2024-02-13T01:42:41.621Z,1.70
2024-02-13T01:45:13.045Z,7.60
2024-02-13T01:47:43.939Z,4.90
2024-02-13T01:50:14.777Z,3.70
2024-02-13T01:52:43.406Z,3.30
2024-02-13T01:55:13.516Z,2.40
2024-02-13T01:57:42.093Z,3.90
2024-02-13T02:00:14.395Z,3.20
2024-02-13T02:02:46.116Z,3.90
2024-02-13T02:05:15.401Z,3.20
2024-02-13T02:07:44.320Z,2.70
2024-02-13T02:10:12.939Z,4.50
2024-02-13T02:12:41.933Z,4.40
2024-02-13T02:15:11.368Z,2.20
2024-02-13T02:17:40.636Z,2.40
2024-02-13T02:20:12.885Z,4.00
2024-02-13T02:22:46.316Z,2.30
2024-02-13T02:25:17.027Z,3.10
2024-02-13T02:27:45.501Z,3.10
2024-02-13T02:30:14.695Z,2.60
2024-02-13T02:32:43.200Z,2.50
2024-02-13T02:35:11.814Z,2.80
2024-02-13T02:37:42.793Z,1.20
2024-02-13T02:40:11.884Z,1.30
2024-02-13T02:42:40.448Z,2.80
2024-02-13T02:45:10.022Z,3.00
2024-02-13T02:47:38.500Z,2.20
2024-02-13T02:50:08.348Z,1.50
2024-02-13T02:52:36.876Z,1.70
2024-02-13T02:55:07.362Z,1.70
2024-02-13T02:57:36.179Z,1.90
2024-02-13T03:00:07.777Z,1.90
2024-02-13T03:02:36.792Z,2.00
2024-02-13T03:05:06.799Z,1.90
2024-02-13T03:07:35.225Z,1.40
2024-02-13T03:10:06.525Z,1.80
2024-02-13T03:12:36.709Z,2.50
2024-02-13T03:15:06.379Z,2.50
2024-02-13T03:17:37.974Z,2.00
2024-02-13T03:20:10.669Z,1.40
2024-02-13T03:22:39.218Z,1.30
2024-02-13T03:25:09.696Z,1.90
2024-02-13T03:27:38.335Z,1.90
2024-02-13T03:30:10.785Z,0.90
2024-02-13T03:32:39.316Z,2.10
2024-02-13T03:35:09.149Z,2.50
2024-02-13T03:37:37.812Z,1.50
2024-02-13T03:40:09.213Z,1.70
2024-02-13T03:42:37.720Z,1.60
2024-02-13T03:45:07.604Z,2.30
2024-02-13T03:47:36.462Z,1.10
2024-02-13T03:50:06.768Z,2.60
2024-02-13T03:52:36.741Z,1.60
2024-02-13T03:55:06.401Z,1.10
2024-02-13T03:57:36.289Z,1.50
2024-02-13T04:00:07.904Z,1.20
2024-02-13T04:02:37.011Z,0.70
2024-02-13T04:05:06.426Z,1.50
2024-02-13T04:07:36.261Z,1.60
2024-02-13T04:10:05.990Z,1.30
2024-02-13T04:12:34.585Z,0.90
2024-02-13T04:15:03.666Z,0.90
2024-02-13T04:17:32.349Z,1.00
2024-02-13T04:20:01.631Z,0.50
2024-02-13T04:22:30.168Z,1.00
2024-02-13T04:24:58.992Z,0.70
2024-02-13T04:27:27.578Z,0.80
2024-02-13T04:29:56.882Z,0.50
2024-02-13T04:32:28.025Z,1.00
2024-02-13T04:34:57.081Z,0.30
2024-02-13T04:37:26.109Z,0.50
2024-02-13T04:39:54.609Z,0.60
2024-02-13T04:42:32.363Z,0.40
2024-02-13T04:45:01.401Z,0.70
2024-02-13T04:47:30.435Z,0.70
2024-02-13T04:50:00.579Z,0.70
2024-02-13T04:52:29.959Z,0.50
2024-02-13T04:54:58.506Z,0.80
2024-02-13T04:57:27.815Z,0.50
2024-02-13T04:59:57.951Z,0.60
2024-02-13T05:02:26.987Z,0.70
2024-02-13T05:05:13.785Z,0.50
2024-02-13T05:07:45.437Z,0.60
2024-02-13T05:10:14.029Z,0.50
2024-02-13T05:12:44.115Z,0.40
2024-02-13T05:15:12.689Z,0.50
2024-02-13T05:17:41.515Z,0.50
2024-02-13T05:20:12.538Z,0.40
2024-02-13T05:22:41.446Z,0.60
2024-02-13T05:25:12.179Z,0.80
2024-02-13T05:27:40.711Z,0.50
2024-02-13T05:30:10.649Z,1.00
2024-02-13T05:32:39.508Z,0.50
2024-02-13T05:35:09.223Z,0.80
2024-02-13T05:37:38.283Z,0.40
2024-02-13T05:40:10.989Z,0.60
2024-02-13T05:42:39.961Z,0.50
2024-02-13T05:45:09.738Z,0.60
2024-02-13T05:47:38.442Z,0.40
2024-02-13T05:50:08.418Z,0.50
2024-02-13T05:52:37.949Z,0.60
2024-02-13T05:55:07.230Z,0.50
2024-02-13T05:57:38.816Z,0.60
2024-02-13T06:00:14.956Z,1.10
2024-02-13T06:02:43.726Z,0.70
2024-02-13T06:05:14.952Z,0.70
2024-02-13T06:07:45.888Z,0.50
2024-02-13T06:10:16.889Z,0.70
2024-02-13T06:12:46.187Z,1.00
2024-02-13T06:15:14.857Z,0.70
2024-02-13T06:17:44.130Z,0.70
2024-02-13T06:20:13.381Z,0.30
2024-02-13T06:22:41.873Z,0.70
2024-02-13T06:25:13.407Z,1.00
2024-02-13T06:27:41.980Z,0.90
2024-02-13T06:30:13.256Z,1.00
2024-02-13T06:32:41.766Z,1.00
2024-02-13T06:35:11.036Z,0.60
2024-02-13T06:37:40.585Z,0.30
2024-02-13T06:40:11.831Z,0.80
2024-02-13T06:42:40.319Z,1.00
2024-02-13T06:45:10.964Z,0.60
2024-02-13T06:47:39.915Z,1.00
2024-02-13T06:50:12.619Z,1.00
2024-02-13T06:52:42.281Z,1.30
2024-02-13T06:55:11.349Z,1.20
2024-02-13T06:57:39.834Z,1.10
2024-02-13T07:00:12.047Z,1.50
2024-02-13T07:02:40.593Z,1.40
2024-02-13T07:05:11.693Z,1.50
2024-02-13T07:07:46.891Z,1.20
2024-02-13T07:10:17.846Z,1.00
2024-02-13T07:12:46.749Z,0.80
2024-02-13T07:15:15.819Z,0.80
2024-02-13T07:17:52.970Z,1.20
2024-02-13T07:20:28.739Z,1.30
2024-02-13T07:22:57.454Z,1.80
2024-02-13T07:25:26.158Z,1.40
2024-02-13T07:27:55.857Z,1.70
2024-02-13T07:30:24.574Z,1.00
2024-02-13T07:32:53.344Z,1.20
2024-02-13T07:35:22.610Z,1.60
2024-02-13T07:37:51.079Z,1.10
2024-02-13T07:40:19.861Z,1.70
2024-02-13T07:42:49.265Z,0.80
2024-02-13T07:45:18.023Z,3.20
2024-02-13T07:47:47.655Z,0.80
2024-02-13T07:50:16.462Z,1.60
2024-02-13T07:52:45.290Z,2.40
2024-02-13T07:55:13.836Z,1.30
2024-02-13T07:57:42.343Z,1.60
2024-02-13T08:00:13.707Z,2.10
2024-02-13T08:02:42.281Z,1.90
2024-02-13T08:05:12.826Z,1.60
2024-02-13T08:07:41.819Z,1.60
2024-02-13T08:10:11.845Z,2.10
2024-02-13T08:12:40.341Z,1.70
2024-02-13T08:15:10.878Z,2.30
2024-02-13T08:17:39.444Z,2.40
2024-02-13T08:20:09.867Z,2.10
2024-02-13T08:22:40.660Z,2.10
2024-02-13T08:25:10.920Z,3.30
2024-02-13T08:27:39.592Z,2.10
2024-02-13T08:30:10.862Z,1.50
2024-02-13T08:32:42.785Z,1.60
2024-02-13T08:35:12.181Z,3.10
2024-02-13T08:37:41.116Z,2.00
2024-02-13T08:40:13.860Z,2.40
2024-02-13T08:42:42.352Z,3.00
2024-02-13T08:45:11.622Z,2.80
2024-02-13T08:47:41.386Z,3.00
2024-02-13T08:50:13.418Z,2.40
2024-02-13T08:52:42.343Z,2.60
2024-02-13T08:55:11.812Z,3.10
2024-02-13T08:57:40.374Z,2.60
2024-02-13T09:00:11.273Z,2.30
2024-02-13T09:02:40.015Z,3.10
2024-02-13T09:05:09.407Z,2.20
2024-02-13T09:07:39.205Z,3.90
2024-02-13T09:10:12.531Z,2.90
2024-02-13T09:12:43.550Z,2.40
2024-02-13T09:15:12.165Z,3.40
2024-02-13T09:17:42.258Z,3.80
2024-02-13T09:20:15.067Z,4.50
2024-02-13T09:22:45.142Z,4.10
2024-02-13T09:25:13.966Z,3.10
2024-02-13T09:27:44.393Z,5.70
2024-02-13T09:30:14.622Z,4.20
2024-02-13T09:32:47.142Z,2.10
2024-02-13T09:35:16.535Z,3.10
2024-02-13T09:37:45.117Z,3.00
2024-02-13T09:40:14.701Z,4.90
2024-02-13T09:42:43.535Z,4.70
2024-02-13T09:45:13.694Z,3.60
2024-02-13T09:47:43.392Z,3.30
2024-02-13T09:50:13.422Z,3.20
2024-02-13T09:52:52.273Z,3.80
2024-02-13T09:55:21.063Z,3.60
2024-02-13T09:57:54.341Z,2.10
2024-02-13T10:00:23.718Z,3.30
2024-02-13T10:02:52.414Z,4.30
2024-02-13T10:05:21.549Z,3.30
2024-02-13T10:07:50.967Z,3.40
2024-02-13T10:10:19.429Z,3.90
2024-02-13T10:12:55.890Z,4.10
2024-02-13T10:15:25.123Z,1.70
2024-02-13T10:17:54.846Z,4.10
2024-02-13T10:20:24.488Z,3.40
2024-02-13T10:22:55.372Z,3.60
2024-02-13T10:25:30.180Z,3.60
2024-02-13T10:28:00.851Z,4.00
2024-02-13T10:30:30.906Z,5.60
2024-02-13T10:33:02.019Z,2.60
2024-02-13T10:35:32.809Z,3.00
2024-02-13T10:38:03.843Z,4.60
2024-02-13T10:40:34.788Z,3.80
2024-02-13T10:43:04.258Z,3.80
2024-02-13T10:45:33.214Z,3.10
2024-02-13T10:48:10.389Z,3.20
2024-02-13T10:50:41.549Z,4.20
2024-02-13T10:53:12.338Z,3.20
2024-02-13T10:55:44.441Z,2.40
2024-02-13T10:58:21.203Z,3.00
2024-02-13T11:00:56.995Z,2.70
2024-02-13T11:03:26.774Z,3.10
2024-02-13T11:05:55.449Z,3.80
2024-02-13T11:08:24.141Z,4.10
2024-02-13T11:10:54.897Z,5.30
2024-02-13T11:13:26.727Z,2.90
2024-02-13T11:15:58.542Z,4.60
2024-02-13T11:18:29.808Z,3.90
2024-02-13T11:21:02.265Z,4.30
2024-02-13T11:23:31.052Z,3.40
2024-02-13T11:26:00.579Z,3.70
2024-02-13T11:28:35.515Z,2.00
2024-02-13T11:31:15.246Z,6.20
2024-02-13T11:34:04.791Z,3.40
2024-02-13T11:36:35.059Z,2.70
2024-02-13T11:39:04.890Z,5.20
2024-02-13T11:41:35.080Z,3.50
2024-02-13T11:44:09.813Z,2.00
2024-02-13T11:46:40.796Z,4.00
2024-02-13T11:49:10.435Z,1.80
2024-02-13T11:51:39.381Z,1.60
2024-02-13T11:54:08.138Z,2.60
2024-02-13T11:56:37.255Z,2.00
2024-02-13T11:59:07.295Z,1.70
2024-02-13T12:01:37.874Z,2.40
2024-02-13T12:04:08.421Z,2.40
2024-02-13T12:06:37.044Z,1.60
2024-02-13T12:09:08.114Z,3.20
2024-02-13T12:11:37.517Z,1.50
2024-02-13T12:14:06.405Z,3.00
2024-02-13T12:16:36.454Z,1.70
2024-02-13T12:19:06.913Z,2.60
2024-02-13T12:21:42.156Z,4.20
2024-02-13T12:24:12.088Z,2.10
2024-02-13T12:26:41.000Z,3.50
2024-02-13T12:29:15.750Z,2.90
2024-02-13T12:31:46.651Z,3.10
2024-02-13T12:34:20.188Z,2.10
2024-02-13T12:36:57.627Z,3.70
2024-02-13T12:39:27.452Z,3.10
2024-02-13T12:41:57.951Z,2.60
2024-02-13T12:44:26.657Z,5.10
2024-02-13T12:46:55.660Z,3.50
2024-02-13T12:49:27.613Z,3.60
2024-02-13T12:51:56.401Z,4.60
2024-02-13T12:54:27.668Z,3.00
2024-02-13T12:56:58.179Z,2.20
2024-02-13T12:59:28.415Z,2.50
2024-02-13T13:01:59.644Z,2.60
2024-02-13T13:04:28.929Z,2.20
2024-02-13T13:06:57.768Z,2.60
2024-02-13T13:09:28.704Z,2.70
2024-02-13T13:11:58.020Z,2.80
2024-02-13T13:14:28.259Z,2.10
2024-02-13T13:16:59.283Z,1.70
2024-02-13T13:19:30.021Z,1.70
2024-02-13T13:21:59.184Z,1.60
2024-02-13T13:24:29.528Z,1.50
2024-02-13T13:26:58.000Z,1.20
2024-02-13T13:29:26.624Z,1.50
2024-02-13T13:31:55.997Z,1.40
2024-02-13T13:34:26.567Z,1.10
2024-02-13T13:36:55.554Z,1.70
2024-02-13T13:39:29.008Z,1.00
2024-02-13T13:42:08.613Z,1.80
2024-02-13T13:44:37.430Z,1.60
2024-02-13T13:47:08.070Z,1.60
2024-02-13T13:49:38.351Z,1.00
2024-02-13T13:52:07.862Z,1.10
2024-02-13T13:54:36.563Z,1.80
2024-02-13T13:57:05.440Z,1.90
2024-02-13T13:59:34.144Z,1.90
2024-02-13T14:02:02.719Z,1.30
2024-02-13T14:04:31.255Z,1.40
2024-02-13T14:07:00.707Z,1.60
2024-02-13T14:09:32.183Z,2.60
2024-02-13T14:12:05.984Z,2.30
2024-02-13T14:14:34.876Z,2.00
2024-02-13T14:17:06.916Z,1.20
2024-02-13T14:19:36.313Z,1.40
2024-02-13T14:22:12.022Z,1.60
2024-02-13T14:24:41.133Z,2.30
2024-02-13T14:27:11.502Z,2.00
2024-02-13T14:29:43.494Z,2.00
2024-02-13T14:32:12.602Z,1.20
2024-02-13T14:34:41.198Z,2.10
2024-02-13T14:37:10.692Z,1.00
2024-02-13T14:39:39.236Z,1.90
2024-02-13T14:42:09.454Z,2.40
2024-02-13T14:44:37.948Z,1.60
2024-02-13T14:47:09.217Z,1.00
2024-02-13T14:49:37.644Z,1.10
2024-02-13T14:52:12.825Z,0.60
2024-02-13T14:54:46.236Z,0.60
2024-02-13T14:57:19.882Z,1.70
2024-02-13T14:59:48.746Z,1.80
2024-02-13T15:02:18.821Z,1.10
2024-02-13T15:04:50.187Z,1.30
2024-02-13T15:07:19.675Z,1.00
2024-02-13T15:09:51.937Z,1.30
2024-02-13T15:12:23.706Z,0.70
2024-02-13T15:14:53.534Z,0.80
2024-02-13T15:17:22.295Z,0.60
2024-02-13T15:19:52.596Z,1.00
2024-02-13T15:22:28.422Z,0.70
2024-02-13T15:25:02.092Z,0.60
2024-02-13T15:27:31.590Z,1.20
2024-02-13T15:30:01.780Z,1.20
2024-02-13T15:32:30.532Z,1.10
2024-02-13T15:35:01.448Z,0.60
2024-02-13T15:37:50.342Z,1.80
2024-02-13T15:40:46.314Z,1.00
2024-02-13T15:43:35.525Z,1.90
2024-02-13T15:46:27.375Z,0.70
2024-02-13T15:48:56.690Z,0.60
2024-02-13T15:51:29.356Z,1.20
2024-02-13T15:54:00.961Z,0.80
2024-02-13T15:56:35.863Z,0.30
2024-02-13T15:59:04.830Z,0.70
2024-02-13T16:01:33.401Z,0.60
2024-02-13T16:04:02.772Z,0.90
2024-02-13T16:06:37.080Z,0.50
2024-02-13T16:09:06.509Z,0.80
2024-02-13T16:11:35.456Z,0.50
2024-02-13T16:14:03.864Z,1.00
2024-02-13T16:16:32.388Z,0.90
2024-02-13T16:19:04.094Z,0.30
2024-02-13T16:21:32.758Z,1.50
2024-02-13T16:24:02.367Z,0.30
2024-02-13T16:26:31.693Z,0.60
2024-02-13T16:29:00.248Z,1.00
2024-02-13T16:31:29.041Z,0.70
2024-02-13T16:33:58.384Z,0.50
2024-02-13T16:36:26.890Z,1.40
2024-02-13T16:38:55.451Z,0.50
2024-02-13T16:41:26.680Z,0.90
2024-02-13T16:43:55.196Z,0.60
2024-02-13T16:46:32.629Z,0.90
2024-02-13T16:49:03.262Z,0.50
2024-02-13T16:51:33.586Z,0.60
2024-02-13T16:54:02.259Z,0.80
2024-02-13T16:56:32.843Z,0.80
2024-02-13T16:59:04.589Z,0.70
2024-02-13T17:01:33.462Z,0.80
2024-02-13T17:04:02.968Z,0.70
2024-02-13T17:06:31.840Z,1.00
2024-02-13T17:09:01.687Z,1.10
2024-02-13T17:11:30.485Z,0.90
2024-02-13T17:13:58.918Z,1.60
2024-02-13T17:16:27.619Z,0.90
2024-02-13T17:18:56.501Z,0.90
2024-02-13T17:21:25.253Z,1.40
2024-02-13T17:23:53.872Z,0.70
2024-02-13T17:26:23.686Z,2.30
2024-02-13T17:28:52.111Z,0.80
2024-02-13T17:31:20.578Z,1.10
2024-02-13T17:33:49.281Z,1.30
2024-02-13T17:36:17.884Z,0.70
2024-02-13T17:38:48.705Z,1.80
2024-02-13T17:41:18.066Z,2.20
2024-02-13T17:43:47.355Z,1.50
2024-02-13T17:46:15.884Z,1.00
2024-02-13T17:48:44.586Z,1.50
2024-02-13T17:51:13.262Z,2.30
2024-02-13T17:53:41.946Z,1.10
2024-02-13T17:56:10.780Z,1.50
2024-02-13T17:58:39.583Z,1.90
2024-02-13T18:01:09.845Z,2.00
2024-02-13T18:03:38.761Z,1.80
2024-02-13T18:06:08.205Z,1.50
2024-02-13T18:08:36.842Z,0.80
2024-02-13T18:11:05.681Z,0.50
2024-02-13T18:13:34.128Z,2.60
2024-02-13T18:16:04.177Z,1.40
2024-02-13T18:18:32.769Z,0.90
2024-02-13T18:21:01.630Z,0.90
2024-02-13T18:23:30.288Z,1.20
2024-02-13T18:25:58.745Z,0.80
2024-02-13T18:28:28.444Z,1.90
2024-02-13T18:31:00.131Z,1.40
2024-02-13T18:33:28.786Z,2.40
2024-02-13T18:35:57.484Z,2.30
2024-02-13T18:38:26.216Z,2.00
2024-02-13T18:40:56.998Z,1.10
2024-02-13T18:43:26.754Z,2.00
2024-02-13T18:45:56.127Z,1.60
2024-02-13T18:48:24.748Z,0.90
2024-02-13T18:50:53.480Z,2.60
2024-02-13T18:53:23.823Z,1.80
2024-02-13T18:55:52.951Z,2.30
2024-02-13T18:58:21.662Z,1.60
2024-02-13T19:00:50.483Z,2.20
2024-02-13T19:03:20.766Z,1.90
2024-02-13T19:05:49.946Z,1.20
2024-02-13T19:08:19.299Z,1.80
2024-02-13T19:10:52.436Z,2.30
2024-02-13T19:13:21.051Z,1.30
2024-02-13T19:15:50.113Z,2.90
2024-02-13T19:18:18.767Z,2.00
2024-02-13T19:20:47.923Z,1.80
2024-02-13T19:23:22.144Z,2.40
2024-02-13T19:25:51.301Z,1.60
2024-02-13T19:28:19.907Z,2.00
2024-02-13T19:30:50.333Z,2.40
2024-02-13T19:33:19.761Z,2.30
2024-02-13T19:35:49.228Z,1.80
2024-02-13T19:38:19.954Z,1.50
2024-02-13T19:40:48.845Z,1.20
2024-02-13T19:43:17.205Z,1.40
2024-02-13T19:45:45.844Z,2.00
2024-02-13T19:48:15.555Z,1.50
2024-02-13T19:50:44.361Z,2.20
2024-02-13T19:53:13.617Z,1.00
2024-02-13T19:55:43.388Z,0.90
2024-02-13T19:58:11.800Z,1.50
2024-02-13T20:00:40.294Z,1.40
2024-02-13T20:03:09.575Z,1.60
2024-02-13T20:05:38.209Z,1.70
2024-02-13T20:08:10.307Z,1.60
2024-02-13T20:10:39.202Z,1.60
2024-02-13T20:13:07.844Z,1.70
2024-02-13T20:15:37.254Z,1.60
2024-02-13T20:18:06.669Z,1.00
2024-02-13T20:20:35.370Z,1.70
2024-02-13T20:23:04.078Z,2.40
2024-02-13T20:25:32.784Z,2.90
2024-02-13T20:28:01.898Z,1.30
2024-02-13T20:30:32.580Z,3.10
2024-02-13T20:33:01.393Z,3.20
2024-02-13T20:35:30.081Z,1.60
2024-02-13T20:37:58.783Z,2.60
2024-02-13T20:40:27.447Z,3.50
2024-02-13T20:42:55.891Z,2.40
2024-02-13T20:45:24.531Z,3.50
2024-02-13T20:47:54.023Z,1.40
2024-02-13T20:50:25.181Z,1.70
2024-02-13T20:52:54.104Z,1.90
2024-02-13T20:55:23.153Z,3.10
2024-02-13T20:57:55.955Z,2.60
2024-02-13T21:00:25.271Z,1.80
2024-02-13T21:02:53.812Z,3.30
2024-02-13T21:05:25.116Z,2.20
2024-02-13T21:07:54.112Z,2.70
2024-02-13T21:10:26.901Z,1.80
2024-02-13T21:12:56.107Z,3.80
2024-02-13T21:15:24.532Z,3.60
2024-02-13T21:17:53.316Z,3.40
2024-02-13T21:20:28.069Z,2.30
2024-02-13T21:23:15.314Z,2.90
2024-02-13T21:25:44.217Z,2.00
2024-02-13T21:28:12.679Z,2.40
2024-02-13T21:30:41.075Z,4.20
2024-02-13T21:33:14.620Z,3.60
2024-02-13T21:35:43.139Z,3.50
2024-02-13T21:38:14.207Z,3.70
2024-02-13T21:40:43.180Z,2.80
2024-02-13T21:43:12.827Z,3.60
2024-02-13T21:45:41.638Z,2.30
2024-02-13T21:48:10.592Z,4.30
2024-02-13T21:50:40.544Z,2.80
2024-02-13T21:53:09.477Z,3.80
2024-02-13T21:55:38.277Z,2.40
2024-02-13T21:58:06.893Z,3.50
2024-02-13T22:00:35.447Z,3.70
2024-02-13T22:03:06.009Z,4.10
2024-02-13T22:05:34.829Z,4.30
2024-02-13T22:08:03.358Z,2.50
2024-02-13T22:10:31.888Z,2.90
2024-02-13T22:13:00.715Z,2.60
2024-02-13T22:15:30.068Z,3.30
2024-02-13T22:17:58.596Z,3.50
2024-02-13T22:20:28.257Z,3.30
2024-02-13T22:22:56.711Z,3.40
2024-02-13T22:25:25.298Z,2.30
2024-02-13T22:27:54.082Z,2.60
2024-02-13T22:30:22.780Z,4.40
2024-02-13T22:32:52.285Z,2.30
2024-02-13T22:35:21.434Z,1.50
2024-02-13T22:37:50.064Z,2.40
2024-02-13T22:40:18.584Z,3.20
2024-02-13T22:42:47.076Z,2.30
2024-02-13T22:45:15.733Z,3.70
2024-02-13T22:47:44.412Z,2.90
2024-02-13T22:50:13.129Z,3.90
2024-02-13T22:52:42.062Z,3.70
2024-02-13T22:55:11.257Z,2.70
2024-02-13T22:57:39.665Z,4.20
2024-02-13T23:00:33.136Z,3.50
2024-02-13T23:03:03.323Z,3.20
2024-02-13T23:05:32.246Z,3.50
2024-02-13T23:08:00.802Z,3.20
2024-02-13T23:10:31.662Z,2.80
2024-02-13T23:13:00.260Z,2.10
2024-02-13T23:15:28.734Z,2.70
2024-02-13T23:17:57.656Z,4.30
2024-02-13T23:20:27.945Z,3.80
2024-02-13T23:22:56.522Z,2.60
2024-02-13T23:25:26.095Z,4.30
2024-02-13T23:27:54.783Z,4.20
2024-02-13T23:30:23.836Z,2.20
2024-02-13T23:32:52.526Z,4.10
2024-02-13T23:35:21.087Z,4.60
2024-02-13T23:37:49.489Z,5.00
2024-02-13T23:40:19.063Z,2.10
2024-02-13T23:42:52.554Z,3.20
2024-02-13T23:45:21.500Z,2.80
2024-02-13T23:47:50.120Z,1.90
2024-02-13T23:50:20.316Z,3.10
2024-02-13T23:52:48.919Z,4.00
2024-02-13T23:55:17.564Z,3.00
2024-02-13T23:57:46.658Z,2.80
